createdAt,value
2024-03-16T00:02:52.804Z,98144.44
2024-03-16T00:05:54.250Z,98139.09
2024-03-16T00:08:55.832Z,98140.63
2024-03-16T00:11:57.351Z,98137.66
2024-03-16T00:14:58.798Z,98144.41
2024-03-16T00:18:01.057Z,98148.78
2024-03-16T00:21:02.515Z,98136.03
2024-03-16T00:24:04.098Z,98141.94
2024-03-16T00:27:05.805Z,98141.00
2024-03-16T00:30:07.763Z,98134.22
2024-03-16T00:33:09.371Z,98143.91
2024-03-16T00:36:11.024Z,98129.28
2024-03-16T00:39:24.563Z,98126.41
2024-03-16T00:42:26.864Z,98132.59
2024-03-16T00:45:28.408Z,98124.44
2024-03-16T00:48:29.892Z,98133.88
2024-03-16T00:51:31.446Z,98139.44
2024-03-16T00:54:32.917Z,98139.59
2024-03-16T00:57:34.392Z,98150.78
2024-03-16T01:00:36.205Z,98150.63
2024-03-16T01:03:37.776Z,98154.34
2024-03-16T01:06:39.259Z,98158.78
2024-03-16T01:09:40.791Z,98157.16
2024-03-16T01:12:42.283Z,98152.91
2024-03-16T01:15:43.728Z,98155.84
2024-03-16T01:18:45.343Z,98160.06
2024-03-16T01:21:46.804Z,98151.75
2024-03-16T01:24:48.517Z,98150.41
2024-03-16T01:27:50.038Z,98145.66
2024-03-16T01:30:51.555Z,98149.22
2024-03-16T01:33:53.070Z,98146.44
2024-03-16T01:36:54.605Z,98157.47
2024-03-16T01:39:56.937Z,98158.09
2024-03-16T01:42:58.598Z,98157.63
2024-03-16T01:46:00.128Z,98169.75
2024-03-16T01:49:02.012Z,98166.22
2024-03-16T01:52:04.793Z,98157.03
2024-03-16T01:55:06.633Z,98150.63
2024-03-16T01:58:08.825Z,98156.97
2024-03-16T02:01:10.523Z,98165.00
2024-03-16T02:04:12.159Z,98162.66
2024-03-16T02:07:13.764Z,98159.38
2024-03-16T02:10:15.868Z,98159.50
2024-03-16T02:13:17.488Z,98152.09
2024-03-16T02:16:19.109Z,98148.75
2024-03-16T02:19:20.787Z,98158.31
2024-03-16T02:22:22.309Z,98164.44
2024-03-16T02:25:24.266Z,98167.13
2024-03-16T02:28:25.709Z,98170.78
2024-03-16T02:31:27.151Z,98172.13
2024-03-16T02:34:28.661Z,98175.66
2024-03-16T02:37:30.177Z,98172.69
2024-03-16T02:40:33.004Z,98174.13
2024-03-16T02:43:35.233Z,98178.66
2024-03-16T02:46:36.692Z,98186.84
2024-03-16T02:49:38.177Z,98183.97
2024-03-16T02:52:39.800Z,98176.72
2024-03-16T02:55:41.216Z,98179.94
2024-03-16T02:58:42.718Z,98185.09
2024-03-16T03:01:44.288Z,98184.25
2024-03-16T03:04:45.743Z,98184.16
2024-03-16T03:07:47.191Z,98185.44
2024-03-16T03:10:48.690Z,98178.97
2024-03-16T03:13:50.462Z,98183.88
2024-03-16T03:16:51.912Z,98182.72
2024-03-16T03:19:53.310Z,98178.06
2024-03-16T03:22:54.898Z,98179.41
2024-03-16T03:25:56.384Z,98173.06
2024-03-16T03:28:57.852Z,98170.28
2024-03-16T03:32:00.066Z,98166.81
2024-03-16T03:35:01.493Z,98165.88
2024-03-16T03:38:03.670Z,98170.09
2024-03-16T03:41:05.155Z,98179.47
2024-03-16T03:44:21.659Z,98168.75
2024-03-16T03:47:31.406Z,98187.13
2024-03-16T03:50:39.735Z,98178.84
2024-03-16T03:53:42.032Z,98180.81
2024-03-16T03:56:43.441Z,98188.19
2024-03-16T03:59:44.903Z,98186.50
2024-03-16T04:02:46.742Z,98189.19
2024-03-16T04:05:53.314Z,98194.03
2024-03-16T04:08:54.801Z,98188.41
2024-03-16T04:11:56.294Z,98189.63
2024-03-16T04:14:58.225Z,98191.34
2024-03-16T04:17:59.732Z,98196.03
2024-03-16T04:21:02.364Z,98185.66
2024-03-16T04:24:04.005Z,98188.50
2024-03-16T04:27:05.659Z,98188.78
2024-03-16T04:30:07.907Z,98191.09
2024-03-16T04:33:09.485Z,98199.22
2024-03-16T04:36:11.065Z,98194.16
2024-03-16T04:39:12.528Z,98197.63
2024-03-16T04:42:13.972Z,98198.63
2024-03-16T04:45:15.415Z,98200.16
2024-03-16T04:48:17.170Z,98200.50
2024-03-16T04:51:18.681Z,98200.97
2024-03-16T04:54:20.112Z,98197.38
2024-03-16T04:57:21.569Z,98195.13
2024-03-16T05:00:23.067Z,98191.72
2024-03-16T05:03:24.585Z,98203.25
2024-03-16T05:06:26.671Z,98204.13
2024-03-16T05:09:28.429Z,98198.69
2024-03-16T05:12:30.146Z,98212.63
2024-03-16T05:15:31.697Z,98213.78
2024-03-16T05:18:33.301Z,98222.16
2024-03-16T05:21:35.991Z,98220.63
2024-03-16T05:24:38.257Z,98225.00
2024-03-16T05:27:39.936Z,98221.44
2024-03-16T05:30:41.552Z,98220.03
2024-03-16T05:33:43.522Z,98230.91
2024-03-16T05:36:45.080Z,98233.94
2024-03-16T05:39:46.727Z,98241.28
2024-03-16T05:42:48.252Z,98239.91
2024-03-16T05:45:52.038Z,98240.75
2024-03-16T05:48:53.528Z,98248.31
2024-03-16T05:51:55.065Z,98252.75
2024-03-16T05:54:56.693Z,98248.75
2024-03-16T05:57:58.213Z,98258.69
2024-03-16T06:01:00.305Z,98268.72
2024-03-16T06:04:01.790Z,98271.41
2024-03-16T06:07:03.502Z,98275.66
2024-03-16T06:10:05.227Z,98277.31
2024-03-16T06:13:06.747Z,98269.09
2024-03-16T06:16:08.280Z,98269.63
2024-03-16T06:19:09.874Z,98277.63
2024-03-16T06:22:11.616Z,98287.75
2024-03-16T06:25:14.404Z,98295.66
2024-03-16T06:28:18.487Z,98302.72
2024-03-16T06:31:27.970Z,98301.38
2024-03-16T06:34:29.770Z,98313.25
2024-03-16T06:37:31.216Z,98316.22
2024-03-16T06:40:32.673Z,98324.97
2024-03-16T06:43:35.025Z,98321.09
2024-03-16T06:46:36.467Z,98326.78
2024-03-16T06:49:37.924Z,98331.88
2024-03-16T06:52:39.738Z,98335.13
2024-03-16T06:55:42.011Z,98339.28
2024-03-16T06:58:43.466Z,98333.38
2024-03-16T07:01:45.152Z,98339.44
2024-03-16T07:04:46.668Z,98336.06
2024-03-16T07:07:48.168Z,98340.03
2024-03-16T07:10:49.675Z,98340.66
2024-03-16T07:13:52.003Z,98347.56
2024-03-16T07:16:53.493Z,98349.97
2024-03-16T07:19:55.264Z,98344.25
2024-03-16T07:22:57.037Z,98337.22
2024-03-16T07:25:59.623Z,98346.69
2024-03-16T07:29:01.078Z,98342.16
2024-03-16T07:32:02.536Z,98337.16
2024-03-16T07:35:07.563Z,98344.66
2024-03-16T07:38:09.459Z,98349.88
2024-03-16T07:41:10.888Z,98351.41
2024-03-16T07:44:12.832Z,98352.97
2024-03-16T07:47:14.377Z,98353.56
2024-03-16T07:50:15.924Z,98358.88
2024-03-16T07:53:17.502Z,98355.16
2024-03-16T07:56:19.782Z,98363.41
2024-03-16T07:59:21.313Z,98359.44
2024-03-16T08:02:22.863Z,98363.56
2024-03-16T08:05:24.938Z,98363.78
2024-03-16T08:08:26.387Z,98376.28
2024-03-16T08:11:29.139Z,98380.03
2024-03-16T08:14:36.060Z,98375.50
2024-03-16T08:17:37.613Z,98378.75
2024-03-16T08:20:39.089Z,98380.13
2024-03-16T08:23:40.510Z,98387.44
2024-03-16T08:26:41.987Z,98390.63
2024-03-16T08:29:43.428Z,98389.09
2024-03-16T08:32:44.941Z,98384.50
2024-03-16T08:35:46.373Z,98389.19
2024-03-16T08:38:47.933Z,98386.97
2024-03-16T08:41:49.500Z,98406.66
2024-03-16T08:44:51.002Z,98407.56
2024-03-16T08:47:52.617Z,98425.44
2024-03-16T08:50:58.189Z,98428.22
2024-03-16T08:53:59.607Z,98442.28
2024-03-16T08:57:01.323Z,98440.41
2024-03-16T09:00:05.507Z,98443.16
2024-03-16T09:03:07.058Z,98446.13
2024-03-16T09:06:08.841Z,98446.13
2024-03-16T09:09:13.112Z,98453.16
2024-03-16T09:12:14.780Z,98440.66
2024-03-16T09:15:18.552Z,98452.50
2024-03-16T09:18:20.005Z,98451.38
2024-03-16T09:21:21.423Z,98455.28
2024-03-16T09:24:23.574Z,98452.41
2024-03-16T09:27:24.986Z,98455.81
2024-03-16T09:30:26.610Z,98453.97
2024-03-16T09:33:28.422Z,98457.22
2024-03-16T09:36:29.861Z,98459.19
2024-03-16T09:39:31.351Z,98451.59
2024-03-16T09:42:34.031Z,98447.03
